Sunny Clover — H3SY — position and weather

sailwx.info

Track history (hours):
 
Tides and Currents Weather Stations Pressure Air Temp Water Temp Dewpoint Dewpoint Depression Visibility Wind Speed Wind Dir Waves Ship Positions

Sunny Clover

Last reported at 2016-May-22 18:21 UTC. Time now 2016-May-28 00:03 UTC.
Position N 22°06' E 114°25'.

Length 137 m; draft 7.8 m.

Type: Cargo ship. MMSI: 374431000.

Date/timePositionNaut miles runAvg speedWind from/ knotsBaromVisibWave heightAir tempDewpointWater temp
2016-May-22 18:21N 22°06' E 114°25'1514.3
2016-May-22 17:17N 22°12' E 114°10'810.8
2016-May-22 16:34N 22°19' E 114°06'2 2.2
2016-May-22 15:34N 22°20' E 114°08'0 0.0
2016-May-22 14:30N 22°20' E 114°08'0 0.0
2016-May-22 13:34N 22°20' E 114°08'0 0.0
2016-May-22 12:31N 22°20' E 114°08'0 0.0
2016-May-22 11:19N 22°20' E 114°08'0 0.0
2016-May-22 10:28N 22°20' E 114°08'0 0.0
2016-May-22 09:31N 22°20' E 114°08'0 0.0
2016-May-22 08:33N 22°20' E 114°08'0 0.0
2016-May-22 07:22N 22°20' E 114°08'0 0.0
2016-May-22 06:34N 22°20' E 114°08'0 0.0
2016-May-22 05:31N 22°20' E 114°08'0 0.0
2016-May-22 04:33N 22°20' E 114°08'0 0.0
2016-May-22 03:33N 22°20' E 114°08'0 0.0
2016-May-22 02:34N 22°20' E 114°08'0 0.0
2016-May-22 01:33N 22°20' E 114°08'3 3.3
2016-May-22 00:33N 22°21' E 114°05'1010.1
2016-May-21 23:32N 22°23' E 113°54'5 4.0
2016-May-21 22:23N 22°28' E 113°54'0 0.0
2016-May-21 21:29N 22°28' E 113°54'0 0.0
2016-May-21 20:29N 22°28' E 113°54'0 0.0
2016-May-21 19:29N 22°28' E 113°54'0 0.0
2016-May-21 18:29N 22°28' E 113°54'0 0.0
2016-May-21 17:23N 22°28' E 113°54'0 0.0
2016-May-21 15:17N 22°28' E 113°54'4 5.2
2016-May-21 14:33N 22°24' E 113°54'10 9.8
2016-May-21 13:30N 22°21' E 114°04'16 8.1
2016-May-21 11:33N 22°08' E 114°14'9 8.5
2016-May-21 10:29N 22°04' E 114°06'1 0.1
2016-May-21 04:32N 22°04' E 114°05'1310.9
2016-May-21 03:21N 22°06' E 113°51'7 9.4
2016-May-21 02:33N 22°13' E 113°48'1413.6
2016-May-21 01:32N 22°26' E 113°45'1613.5
2016-May-21 00:22N 22°42' E 113°41'911.0
2016-May-20 23:32N 22°49' E 113°35'9 9.6
2016-May-20 22:33N 22°58' E 113°32'5 3.9
2016-May-20 21:24N 23°03' E 113°31'0 0.0
2016-May-20 20:24N 23°03' E 113°31'0 0.0
2016-May-20 19:30N 23°03' E 113°31'0 0.0
2016-May-20 18:30N 23°03' E 113°31'0 0.0
2016-May-20 17:12N 23°03' E 113°31'0 0.0
2016-May-20 16:06N 23°03' E 113°31'0 0.0
2016-May-20 15:30N 23°03' E 113°31'0 0.0
2016-May-20 14:30N 23°03' E 113°31'0 0.0
2016-May-20 13:07N 23°03' E 113°31'0 0.0
2016-May-20 12:24N 23°03' E 113°31'0 0.0
2016-May-20 11:24N 23°03' E 113°31'0 0.0
2016-May-20 10:30N 23°03' E 113°31'0 0.0
2016-May-20 09:30N 23°03' E 113°31'0 0.0
2016-May-20 07:12N 23°03' E 113°31'0 0.0
2016-May-20 05:24N 23°03' E 113°31'0 0.0
2016-May-20 04:33N 23°03' E 113°31'6 5.7
2016-May-20 03:33N 22°57' E 113°32'1010.1
2016-May-20 02:32N 22°48' E 113°37'2813.1
2016-May-20 00:26N 22°22' E 113°47'1111.8
2016-May-19 23:32N 22°11' E 113°47'21 6.6
2016-May-19 20:18N 22°12' E 114°10'810.2
2016-May-19 19:33N 22°18' E 114°05'2 2.2
2016-May-19 18:32N 22°19' E 114°08'0 0.0
2016-May-19 17:29N 22°19' E 114°08'0 0.0
2016-May-19 16:29N 22°19' E 114°08'0 0.0
2016-May-19 15:32N 22°19' E 114°08'0 0.0
2016-May-19 14:32N 22°19' E 114°08'0 0.0
2016-May-19 13:32N 22°19' E 114°08'0 0.1
2016-May-19 12:33N 22°20' E 114°07'7 6.0
2016-May-19 11:26N 22°13' E 114°10'6 6.7
2016-May-19 10:33N 22°08' E 114°14'1614.2
2016-May-19 09:27N 22°10' E 114°31'15016.7
2016-May-19 00:27N 23°03' E 117°03'60713.5
2016-May-17 03:25N 29°55' E 125°20'1617.1
2016-May-17 02:29N 30°08' E 125°30'  
Track history (hours):
 
Tides and Currents Weather Stations Pressure Air Temp Water Temp Dewpoint Dewpoint Depression Visibility Wind Speed Wind Dir Waves Ship Positions

Sunny Clover

Last reported at 2016-May-22 18:21 UTC. Time now 2016-May-28 00:03 UTC.
Position N 22°06' E 114°25'.

Length 137 m; draft 7.8 m.

Type: Cargo ship. MMSI: 374431000.

Date/timePositionNaut miles runAvg speedWind from/ knotsBaromVisibWave heightAir tempDewpointWater temp
2016-May-22 18:21N 22°06' E 114°25'1514.3
2016-May-22 17:17N 22°12' E 114°10'810.8
2016-May-22 16:34N 22°19' E 114°06'2 2.2
2016-May-22 15:34N 22°20' E 114°08'0 0.0
2016-May-22 14:30N 22°20' E 114°08'0 0.0
2016-May-22 13:34N 22°20' E 114°08'0 0.0
2016-May-22 12:31N 22°20' E 114°08'0 0.0
2016-May-22 11:19N 22°20' E 114°08'0 0.0
2016-May-22 10:28N 22°20' E 114°08'0 0.0
2016-May-22 09:31N 22°20' E 114°08'0 0.0
2016-May-22 08:33N 22°20' E 114°08'0 0.0
2016-May-22 07:22N 22°20' E 114°08'0 0.0
2016-May-22 06:34N 22°20' E 114°08'0 0.0
2016-May-22 05:31N 22°20' E 114°08'0 0.0
2016-May-22 04:33N 22°20' E 114°08'0 0.0
2016-May-22 03:33N 22°20' E 114°08'0 0.0
2016-May-22 02:34N 22°20' E 114°08'0 0.0
2016-May-22 01:33N 22°20' E 114°08'3 3.3
2016-May-22 00:33N 22°21' E 114°05'1010.1
2016-May-21 23:32N 22°23' E 113°54'5 4.0
2016-May-21 22:23N 22°28' E 113°54'0 0.0
2016-May-21 21:29N 22°28' E 113°54'0 0.0
2016-May-21 20:29N 22°28' E 113°54'0 0.0
2016-May-21 19:29N 22°28' E 113°54'0 0.0
2016-May-21 18:29N 22°28' E 113°54'0 0.0
2016-May-21 17:23N 22°28' E 113°54'0 0.0
2016-May-21 15:17N 22°28' E 113°54'4 5.2
2016-May-21 14:33N 22°24' E 113°54'10 9.8
2016-May-21 13:30N 22°21' E 114°04'16 8.1
2016-May-21 11:33N 22°08' E 114°14'9 8.5
2016-May-21 10:29N 22°04' E 114°06'1 0.1
2016-May-21 04:32N 22°04' E 114°05'1310.9
2016-May-21 03:21N 22°06' E 113°51'7 9.4
2016-May-21 02:33N 22°13' E 113°48'1413.6
2016-May-21 01:32N 22°26' E 113°45'1613.5
2016-May-21 00:22N 22°42' E 113°41'911.0
2016-May-20 23:32N 22°49' E 113°35'9 9.6
2016-May-20 22:33N 22°58' E 113°32'5 3.9
2016-May-20 21:24N 23°03' E 113°31'0 0.0
2016-May-20 20:24N 23°03' E 113°31'0 0.0
2016-May-20 19:30N 23°03' E 113°31'0 0.0
2016-May-20 18:30N 23°03' E 113°31'0 0.0
2016-May-20 17:12N 23°03' E 113°31'0 0.0
2016-May-20 16:06N 23°03' E 113°31'0 0.0
2016-May-20 15:30N 23°03' E 113°31'0 0.0
2016-May-20 14:30N 23°03' E 113°31'0 0.0
2016-May-20 13:07N 23°03' E 113°31'0 0.0
2016-May-20 12:24N 23°03' E 113°31'0 0.0
2016-May-20 11:24N 23°03' E 113°31'0 0.0
2016-May-20 10:30N 23°03' E 113°31'0 0.0
2016-May-20 09:30N 23°03' E 113°31'0 0.0
2016-May-20 07:12N 23°03' E 113°31'0 0.0
2016-May-20 05:24N 23°03' E 113°31'0 0.0
2016-May-20 04:33N 23°03' E 113°31'6 5.7
2016-May-20 03:33N 22°57' E 113°32'1010.1
2016-May-20 02:32N 22°48' E 113°37'2813.1
2016-May-20 00:26N 22°22' E 113°47'1111.8
2016-May-19 23:32N 22°11' E 113°47'21 6.6
2016-May-19 20:18N 22°12' E 114°10'810.2
2016-May-19 19:33N 22°18' E 114°05'2 2.2
2016-May-19 18:32N 22°19' E 114°08'0 0.0
2016-May-19 17:29N 22°19' E 114°08'0 0.0
2016-May-19 16:29N 22°19' E 114°08'0 0.0
2016-May-19 15:32N 22°19' E 114°08'0 0.0
2016-May-19 14:32N 22°19' E 114°08'0 0.0
2016-May-19 13:32N 22°19' E 114°08'0 0.1
2016-May-19 12:33N 22°20' E 114°07'7 6.0
2016-May-19 11:26N 22°13' E 114°10'6 6.7
2016-May-19 10:33N 22°08' E 114°14'1614.2
2016-May-19 09:27N 22°10' E 114°31'15016.7
2016-May-19 00:27N 23°03' E 117°03'60713.5
2016-May-17 03:25N 29°55' E 125°20'1617.1
2016-May-17 02:29N 30°08' E 125°30'  

Dump ship's entire track history